createdAt,value
2022-10-18T00:01:00.064Z,12.52
2022-10-18T00:03:27.156Z,12.35
2022-10-18T00:05:54.242Z,11.52
2022-10-18T00:08:21.487Z,12.27
2022-10-18T00:10:49.204Z,13.82
2022-10-18T00:13:16.835Z,14.48
2022-10-18T00:16:00.378Z,14.80
2022-10-18T00:18:29.146Z,14.40
2022-10-18T00:21:02.877Z,13.80
2022-10-18T00:23:31.062Z,14.05
2022-10-18T00:26:11.195Z,14.13
2022-10-18T00:28:39.217Z,17.88
2022-10-18T00:31:35.325Z,16.63
2022-10-18T00:34:15.291Z,15.27
2022-10-18T00:36:44.313Z,15.25
2022-10-18T00:39:18.712Z,16.35
2022-10-18T00:41:46.878Z,16.15
2022-10-18T00:44:16.548Z,15.40
2022-10-18T00:46:46.568Z,16.50
2022-10-18T00:49:31.097Z,17.77
2022-10-18T00:52:12.440Z,18.52
2022-10-18T00:54:43.620Z,17.20
2022-10-18T00:57:12.330Z,19.33
2022-10-18T00:59:41.065Z,18.30
2022-10-18T01:02:09.061Z,19.20
2022-10-18T01:04:36.564Z,16.23
2022-10-18T01:07:24.697Z,17.73
2022-10-18T01:10:23.748Z,15.88
2022-10-18T01:13:22.086Z,15.75
2022-10-18T01:16:25.652Z,15.30
2022-10-18T01:19:18.312Z,14.75
2022-10-18T01:22:05.637Z,16.90
2022-10-18T01:25:09.859Z,16.27
2022-10-18T01:28:12.134Z,18.05
2022-10-18T01:31:03.040Z,16.45
2022-10-18T01:33:46.164Z,16.05
2022-10-18T01:36:23.307Z,16.35
2022-10-18T01:38:54.471Z,16.17
2022-10-18T01:41:24.663Z,14.13
2022-10-18T01:43:58.015Z,17.95
2022-10-18T01:46:26.727Z,16.50
2022-10-18T01:48:55.022Z,14.67
2022-10-18T01:51:32.220Z,17.55
2022-10-18T01:54:00.184Z,15.50
2022-10-18T01:56:53.783Z,16.25
2022-10-18T01:59:39.383Z,14.35
2022-10-18T02:03:06.253Z,15.20
2022-10-18T02:06:04.661Z,13.77
2022-10-18T02:08:45.889Z,14.32
2022-10-18T02:11:15.168Z,15.02
2022-10-18T02:13:59.571Z,12.73
2022-10-18T02:16:42.017Z,13.20
2022-10-18T02:19:17.757Z,14.50
2022-10-18T02:21:47.226Z,14.55
2022-10-18T02:24:15.423Z,13.10
2022-10-18T02:26:42.831Z,15.02
2022-10-18T02:29:10.847Z,12.50
2022-10-18T02:31:51.589Z,16.92
2022-10-18T02:34:34.081Z,13.48
2022-10-18T02:37:02.458Z,14.95
2022-10-18T02:39:40.392Z,15.30
2022-10-18T02:42:10.601Z,15.35
2022-10-18T02:44:38.536Z,16.75
2022-10-18T02:47:07.888Z,13.57
2022-10-18T02:49:35.016Z,16.25
2022-10-18T02:52:02.378Z,15.90
2022-10-18T02:54:29.479Z,17.75
2022-10-18T02:56:56.749Z,16.52
2022-10-18T02:59:23.838Z,17.33
2022-10-18T03:01:51.008Z,16.27
2022-10-18T03:04:18.203Z,15.13
2022-10-18T03:06:45.328Z,15.77
2022-10-18T03:09:12.394Z,16.00
2022-10-18T03:11:39.464Z,16.08
2022-10-18T03:14:06.597Z,17.55
2022-10-18T03:16:33.774Z,14.68
2022-10-18T03:19:00.991Z,14.93
2022-10-18T03:21:28.141Z,15.07
2022-10-18T03:23:55.624Z,16.23
2022-10-18T03:26:22.746Z,16.42
2022-10-18T03:28:49.791Z,19.27
2022-10-18T03:31:17.094Z,15.60
2022-10-18T03:33:44.223Z,17.02
2022-10-18T03:36:11.610Z,13.48
2022-10-18T03:38:38.825Z,14.07
2022-10-18T03:41:06.060Z,14.70
2022-10-18T03:43:33.293Z,14.48
2022-10-18T03:46:01.030Z,16.17
2022-10-18T03:48:28.104Z,14.30
2022-10-18T03:50:55.195Z,13.30
2022-10-18T03:53:22.298Z,16.02
2022-10-18T03:55:56.121Z,12.27
2022-10-18T03:58:23.948Z,11.27
2022-10-18T04:00:55.038Z,12.02
2022-10-18T04:03:22.982Z,10.48
2022-10-18T04:05:50.524Z,10.85
2022-10-18T04:08:18.489Z,13.38
2022-10-18T04:10:46.028Z,12.18
2022-10-18T04:13:13.471Z,10.82
2022-10-18T04:15:40.568Z,11.23
2022-10-18T04:18:07.710Z,9.98
2022-10-18T04:20:34.821Z,11.25
2022-10-18T04:23:02.048Z,11.35
2022-10-18T04:25:29.222Z,11.85
2022-10-18T04:27:56.435Z,10.90
2022-10-18T04:30:23.800Z,11.45
2022-10-18T04:32:50.880Z,13.68
2022-10-18T04:35:19.187Z,14.85
2022-10-18T04:37:46.422Z,16.05
2022-10-18T04:40:13.552Z,17.27
2022-10-18T04:42:40.643Z,16.20
2022-10-18T04:45:08.520Z,15.93
2022-10-18T04:47:35.694Z,13.50
2022-10-18T04:50:04.095Z,11.02
2022-10-18T04:52:31.548Z,10.65
2022-10-18T04:54:58.701Z,10.52
2022-10-18T04:57:25.866Z,12.90
2022-10-18T04:59:52.981Z,13.05
2022-10-18T05:02:20.045Z,11.38
2022-10-18T05:04:47.090Z,14.27
2022-10-18T05:07:14.226Z,15.43
2022-10-18T05:09:41.482Z,17.48
2022-10-18T05:12:08.594Z,14.73
2022-10-18T05:14:35.701Z,13.88
2022-10-18T05:17:02.813Z,14.40
2022-10-18T05:19:29.910Z,16.67
2022-10-18T05:21:57.064Z,14.77
2022-10-18T05:24:26.918Z,16.55
2022-10-18T05:26:54.945Z,14.45
2022-10-18T05:29:22.309Z,14.20
2022-10-18T05:31:50.306Z,13.68
2022-10-18T05:34:17.767Z,12.60
2022-10-18T05:36:45.098Z,11.65
2022-10-18T05:39:12.440Z,10.20
2022-10-18T05:41:39.534Z,9.85
2022-10-18T05:44:06.720Z,11.50
2022-10-18T05:46:34.033Z,14.05
2022-10-18T05:49:01.955Z,10.98
2022-10-18T05:51:29.019Z,13.35
2022-10-18T05:53:56.175Z,11.90
2022-10-18T05:56:23.320Z,12.25
2022-10-18T05:58:51.468Z,13.20
2022-10-18T06:01:18.920Z,12.50
2022-10-18T06:03:46.506Z,11.77
2022-10-18T06:06:14.758Z,11.35
2022-10-18T06:08:43.969Z,11.07
2022-10-18T06:11:18.134Z,10.82
2022-10-18T06:13:48.793Z,10.77
2022-10-18T06:16:20.122Z,10.75
2022-10-18T06:18:49.254Z,10.48
2022-10-18T06:23:48.002Z,9.88
2022-10-18T06:26:15.463Z,8.98
2022-10-18T06:28:42.766Z,9.25
2022-10-18T06:31:11.963Z,9.27
2022-10-18T06:33:39.458Z,8.40
2022-10-18T06:36:14.064Z,9.20
2022-10-18T06:38:41.388Z,8.57
2022-10-18T06:41:09.027Z,8.95
2022-10-18T06:43:36.468Z,8.82
2022-10-18T06:46:06.969Z,9.32
2022-10-18T06:48:35.980Z,9.27
2022-10-18T06:51:05.482Z,11.82
2022-10-18T06:56:12.649Z,11.57
2022-10-18T06:58:40.333Z,10.43
2022-10-18T07:01:15.287Z,10.73
2022-10-18T07:03:43.616Z,11.23
2022-10-18T07:06:13.745Z,9.80
2022-10-18T07:08:41.410Z,10.32
2022-10-18T07:11:15.964Z,8.27
2022-10-18T07:13:43.426Z,9.40
2022-10-18T07:16:17.323Z,7.43
2022-10-18T07:18:49.190Z,10.07
2022-10-18T07:21:20.052Z,9.93
2022-10-18T07:23:47.759Z,8.00
2022-10-18T07:26:28.581Z,7.63
2022-10-18T07:29:08.166Z,17.13
2022-10-18T07:31:37.773Z,16.23
2022-10-18T07:34:05.879Z,11.82
2022-10-18T07:36:33.343Z,12.38
2022-10-18T07:39:00.414Z,9.75
2022-10-18T07:41:28.454Z,10.35
2022-10-18T07:43:55.638Z,10.50
2022-10-18T07:46:22.799Z,10.52
2022-10-18T07:48:50.369Z,9.65
2022-10-18T07:51:19.614Z,9.13
2022-10-18T07:53:46.873Z,9.85
2022-10-18T07:56:19.831Z,8.40
2022-10-18T07:58:52.888Z,9.55
2022-10-18T08:01:22.594Z,8.07
2022-10-18T08:03:50.575Z,8.18
2022-10-18T08:06:20.467Z,9.88
2022-10-18T08:08:47.931Z,9.27
2022-10-18T08:11:21.873Z,10.18
2022-10-18T08:13:49.629Z,8.82
2022-10-18T08:16:21.094Z,8.43
2022-10-18T08:18:48.724Z,7.53
2022-10-18T08:21:18.362Z,7.07
2022-10-18T08:23:46.339Z,6.65
2022-10-18T08:26:21.249Z,6.13
2022-10-18T08:28:58.319Z,5.07
2022-10-18T08:31:30.959Z,5.65
2022-10-18T08:33:58.104Z,6.72
2022-10-18T08:36:25.346Z,5.28
2022-10-18T08:38:52.452Z,6.78
2022-10-18T08:41:37.012Z,6.90
2022-10-18T08:44:19.875Z,6.18
2022-10-18T08:46:58.276Z,4.97
2022-10-18T08:49:34.316Z,3.60
2022-10-18T08:52:03.593Z,3.40
2022-10-18T08:54:43.677Z,4.80
2022-10-18T08:57:17.641Z,4.30
2022-10-18T08:59:44.910Z,3.78
2022-10-18T09:03:05.008Z,5.15
2022-10-18T09:06:35.075Z,4.07
2022-10-18T09:09:25.979Z,3.75
2022-10-18T09:12:14.194Z,5.40
2022-10-18T09:15:00.747Z,3.67
2022-10-18T09:17:59.152Z,2.50
2022-10-18T09:20:53.739Z,3.03
2022-10-18T09:23:43.445Z,2.75
2022-10-18T09:26:21.848Z,1.90
2022-10-18T09:29:16.575Z,3.50
2022-10-18T09:32:16.613Z,2.30
2022-10-18T09:35:05.421Z,2.83
2022-10-18T09:37:33.970Z,1.95
2022-10-18T09:40:29.457Z,2.45
2022-10-18T09:43:19.914Z,2.60
2022-10-18T09:45:47.706Z,1.52
2022-10-18T09:48:30.667Z,2.05
2022-10-18T09:51:10.810Z,2.53
2022-10-18T09:53:59.601Z,1.67
2022-10-18T09:56:39.343Z,2.53
2022-10-18T09:59:34.853Z,3.13
2022-10-18T10:02:02.751Z,2.53
2022-10-18T10:04:30.163Z,1.50
2022-10-18T10:07:01.117Z,2.75
2022-10-18T10:09:36.718Z,1.70
2022-10-18T10:12:04.216Z,1.10
2022-10-18T10:14:43.417Z,1.13
2022-10-18T10:20:14.917Z,1.40
2022-10-18T10:22:44.412Z,1.20
2022-10-18T10:25:32.646Z,1.23
2022-10-18T10:28:15.861Z,1.37
2022-10-18T10:30:43.075Z,1.98
2022-10-18T10:33:37.508Z,3.00
2022-10-18T10:36:16.500Z,1.45
2022-10-18T10:38:43.829Z,1.60
2022-10-18T10:41:22.512Z,1.95
2022-10-18T10:43:50.826Z,2.05
2022-10-18T10:46:19.882Z,1.80
2022-10-18T10:49:04.495Z,2.13
2022-10-18T10:51:43.071Z,1.90
2022-10-18T10:54:21.174Z,1.55
2022-10-18T10:57:04.748Z,1.10
2022-10-18T10:59:51.005Z,2.25
2022-10-18T11:02:29.836Z,1.98
2022-10-18T11:05:26.420Z,1.55
2022-10-18T11:07:58.866Z,1.80
2022-10-18T11:10:31.707Z,1.80
2022-10-18T11:13:28.124Z,1.88
2022-10-18T11:16:05.175Z,1.77
2022-10-18T11:18:37.602Z,1.73
2022-10-18T11:21:11.564Z,2.03
2022-10-18T11:23:41.704Z,2.58
2022-10-18T11:26:11.415Z,2.17
2022-10-18T11:29:03.274Z,2.67
2022-10-18T11:31:35.198Z,1.92
2022-10-18T11:34:32.638Z,2.38
2022-10-18T11:37:29.417Z,1.50
2022-10-18T11:40:28.428Z,2.00
2022-10-18T11:48:22.874Z,1.75
2022-10-18T11:51:04.030Z,2.25
2022-10-18T11:53:57.050Z,1.50
2022-10-18T11:56:49.366Z,2.00
2022-10-18T11:59:37.200Z,2.05
2022-10-18T12:02:19.890Z,2.00
2022-10-18T12:08:06.385Z,1.50
2022-10-18T12:10:45.970Z,1.42
2022-10-18T12:13:47.396Z,1.73
2022-10-18T12:16:17.501Z,1.92
2022-10-18T12:19:03.282Z,1.75
2022-10-18T12:21:33.752Z,2.10
2022-10-18T12:24:22.048Z,1.17
2022-10-18T12:26:53.511Z,1.73
2022-10-18T12:29:39.032Z,1.75
2022-10-18T12:32:15.175Z,1.23
2022-10-18T12:34:53.964Z,1.30
2022-10-18T12:38:06.127Z,1.42
2022-10-18T12:40:43.976Z,2.08
2022-10-18T12:43:23.639Z,1.48
2022-10-18T12:45:58.321Z,1.67
2022-10-18T12:48:42.485Z,1.40
2022-10-18T12:51:21.716Z,1.48
2022-10-18T12:56:43.174Z,1.27
2022-10-18T12:59:16.413Z,1.15
2022-10-18T13:01:52.368Z,1.23
2022-10-18T13:04:28.243Z,1.10
2022-10-18T13:07:21.032Z,1.27
2022-10-18T13:10:10.046Z,0.93
2022-10-18T13:15:43.297Z,1.30
2022-10-18T13:18:47.147Z,1.20
2022-10-18T13:21:27.294Z,1.50
2022-10-18T13:24:06.309Z,1.10
2022-10-18T13:29:49.923Z,1.65
2022-10-18T13:32:35.270Z,1.17
2022-10-18T13:35:03.068Z,1.42
2022-10-18T13:37:30.480Z,0.70
2022-10-18T13:40:24.815Z,1.02
2022-10-18T13:42:51.937Z,1.33
2022-10-18T13:45:31.309Z,1.42
2022-10-18T13:48:29.588Z,0.98
2022-10-18T13:51:21.033Z,1.33
2022-10-18T13:54:03.115Z,1.10
2022-10-18T13:57:04.438Z,0.68
2022-10-18T13:59:43.835Z,1.50
2022-10-18T14:02:50.357Z,0.98
2022-10-18T14:05:53.948Z,0.80
2022-10-18T14:08:27.822Z,1.08
2022-10-18T14:11:05.463Z,0.65
2022-10-18T14:13:57.061Z,1.23
2022-10-18T14:16:41.194Z,1.33
2022-10-18T14:19:33.711Z,1.52
2022-10-18T14:22:26.807Z,0.98
2022-10-18T14:24:58.903Z,2.65
2022-10-18T14:27:31.738Z,1.88
2022-10-18T14:30:19.954Z,1.00
2022-10-18T14:32:53.841Z,1.27
2022-10-18T14:35:33.322Z,1.27
2022-10-18T14:38:01.840Z,1.33
2022-10-18T14:40:33.086Z,1.98
2022-10-18T14:43:14.992Z,1.00
2022-10-18T14:45:42.660Z,1.10
2022-10-18T14:48:22.375Z,1.00
2022-10-18T14:50:59.754Z,1.20
2022-10-18T14:53:38.489Z,0.80
2022-10-18T14:56:07.859Z,0.60
2022-10-18T14:58:37.821Z,0.95
2022-10-18T15:01:06.142Z,1.42
2022-10-18T15:03:36.594Z,0.70
2022-10-18T15:06:07.347Z,1.10
2022-10-18T15:08:40.138Z,1.20
2022-10-18T15:11:11.915Z,1.55
2022-10-18T15:14:02.831Z,1.98
2022-10-18T15:16:32.686Z,1.35
2022-10-18T15:19:07.615Z,1.83
2022-10-18T15:21:36.422Z,3.15
2022-10-18T15:24:40.864Z,2.08
2022-10-18T15:27:23.826Z,3.35
2022-10-18T15:29:52.061Z,2.38
2022-10-18T15:32:31.055Z,2.85
2022-10-18T15:35:24.987Z,2.95
2022-10-18T15:37:57.636Z,4.60
2022-10-18T15:40:27.621Z,4.80
2022-10-18T15:42:58.494Z,6.18
2022-10-18T15:45:26.833Z,5.88
2022-10-18T15:48:21.856Z,8.32
2022-10-18T15:50:55.602Z,21.77
2022-10-18T15:53:51.344Z,17.17
2022-10-18T15:56:27.742Z,9.60
2022-10-18T15:58:57.321Z,11.15
2022-10-18T16:01:42.016Z,8.40
2022-10-18T16:04:26.721Z,12.45
2022-10-18T16:06:55.433Z,8.30
2022-10-18T16:09:25.468Z,4.47
2022-10-18T16:11:56.972Z,3.83
2022-10-18T16:14:25.800Z,5.30
2022-10-18T16:17:00.840Z,6.82
2022-10-18T16:19:28.482Z,6.88
2022-10-18T16:21:55.712Z,6.95
2022-10-18T16:24:23.658Z,12.25
2022-10-18T16:27:00.122Z,23.52
2022-10-18T16:29:31.392Z,10.40
2022-10-18T16:31:59.311Z,3.95
2022-10-18T16:34:26.866Z,4.10
2022-10-18T16:36:54.712Z,3.20
2022-10-18T16:39:22.586Z,2.97
2022-10-18T16:41:50.697Z,2.88
2022-10-18T16:44:18.567Z,3.70
2022-10-18T16:46:50.976Z,5.32
2022-10-18T16:49:24.760Z,5.10
2022-10-18T16:51:53.455Z,7.13
2022-10-18T16:54:20.791Z,5.73
2022-10-18T16:56:49.371Z,8.60
2022-10-18T16:59:31.580Z,10.57
2022-10-18T17:02:00.901Z,13.32
2022-10-18T17:04:28.828Z,12.02
2022-10-18T17:06:57.981Z,11.05
2022-10-18T17:09:25.043Z,9.82
2022-10-18T17:11:52.305Z,9.30
2022-10-18T17:14:19.369Z,7.90
2022-10-18T17:16:50.076Z,5.63
2022-10-18T17:19:21.039Z,5.93
2022-10-18T17:21:48.174Z,7.25
2022-10-18T17:24:15.384Z,10.00
2022-10-18T17:26:42.616Z,8.85
2022-10-18T17:29:09.865Z,5.82
2022-10-18T17:31:37.075Z,5.13
2022-10-18T17:34:04.709Z,4.72
2022-10-18T17:36:33.106Z,5.07
2022-10-18T17:39:00.622Z,4.77
2022-10-18T17:41:28.312Z,6.90
2022-10-18T17:43:55.636Z,5.97
2022-10-18T17:46:23.279Z,7.15
2022-10-18T17:48:50.446Z,8.93
2022-10-18T17:51:18.174Z,13.23
2022-10-18T17:53:45.565Z,10.27
2022-10-18T17:56:13.920Z,10.65
2022-10-18T17:58:46.201Z,8.63
2022-10-18T18:01:17.588Z,9.35
2022-10-18T18:03:47.060Z,8.57
2022-10-18T18:06:20.402Z,9.43
2022-10-18T18:08:49.012Z,12.05
2022-10-18T18:11:17.537Z,18.30
2022-10-18T18:13:44.655Z,25.13
2022-10-18T18:16:23.423Z,24.95
2022-10-18T18:18:53.954Z,15.43
2022-10-18T18:21:21.604Z,11.05
2022-10-18T18:23:49.693Z,13.68
2022-10-18T18:26:18.608Z,16.45
2022-10-18T18:28:46.119Z,16.15
2022-10-18T18:31:19.510Z,16.98
2022-10-18T18:33:46.653Z,17.25
2022-10-18T18:36:13.855Z,18.27
2022-10-18T18:38:42.021Z,27.33
2022-10-18T18:41:21.155Z,27.90
2022-10-18T18:43:56.756Z,20.85
2022-10-18T18:46:26.498Z,16.70
2022-10-18T18:48:54.060Z,16.05
2022-10-18T18:51:23.753Z,16.67
2022-10-18T18:53:51.689Z,15.43
2022-10-18T18:56:24.220Z,14.00
2022-10-18T18:58:52.592Z,14.25
2022-10-18T19:01:24.025Z,15.18
2022-10-18T19:03:53.852Z,9.40
2022-10-18T19:06:24.938Z,10.23
2022-10-18T19:08:57.560Z,9.60
2022-10-18T19:11:24.729Z,9.88
2022-10-18T19:13:51.910Z,10.48
2022-10-18T19:16:23.640Z,10.95
2022-10-18T19:19:07.368Z,11.20
2022-10-18T19:21:41.225Z,9.40
2022-10-18T19:24:08.895Z,13.38
2022-10-18T19:26:51.764Z,13.05
2022-10-18T19:29:23.960Z,13.93
2022-10-18T19:31:54.235Z,12.40
2022-10-18T19:34:24.353Z,15.25
2022-10-18T19:36:51.982Z,15.55
2022-10-18T19:39:33.872Z,22.83
2022-10-18T19:42:08.376Z,19.83
2022-10-18T19:44:36.694Z,19.52
2022-10-18T19:47:06.178Z,20.98
2022-10-18T19:52:00.442Z,16.15
2022-10-18T19:54:27.969Z,15.18
2022-10-18T19:56:55.282Z,13.88
2022-10-18T19:59:23.400Z,13.75
2022-10-18T20:01:50.560Z,14.13
2022-10-18T20:04:17.703Z,14.73
2022-10-18T20:06:45.305Z,12.45
2022-10-18T20:09:16.268Z,13.38
2022-10-18T20:11:47.128Z,13.70
2022-10-18T20:14:14.418Z,14.27
2022-10-18T20:16:41.643Z,13.95
2022-10-18T20:19:09.915Z,19.83
2022-10-18T20:21:38.721Z,26.38
2022-10-18T20:24:07.266Z,24.00
2022-10-18T20:26:35.203Z,22.02
2022-10-18T20:29:03.398Z,14.48
2022-10-18T20:31:34.880Z,13.32
2022-10-18T20:34:06.586Z,10.63
2022-10-18T20:36:34.591Z,12.18
2022-10-18T20:39:03.640Z,13.95
2022-10-18T20:41:35.840Z,12.15
2022-10-18T20:44:08.389Z,11.25
2022-10-18T20:46:37.580Z,10.90
2022-10-18T20:49:07.601Z,11.33
2022-10-18T20:51:35.308Z,11.73
2022-10-18T20:56:34.750Z,10.18
2022-10-18T20:59:04.753Z,10.57
2022-10-18T21:01:34.506Z,11.35
2022-10-18T21:04:05.529Z,10.93
2022-10-18T21:06:36.877Z,11.40
2022-10-18T21:09:08.287Z,10.80
2022-10-18T21:11:38.621Z,10.35
2022-10-18T21:14:07.182Z,9.35
2022-10-18T21:16:35.729Z,9.87
2022-10-18T21:19:16.381Z,10.40
2022-10-18T21:21:46.524Z,9.65
2022-10-18T21:24:14.540Z,10.65
2022-10-18T21:26:41.950Z,16.08
2022-10-18T21:29:11.562Z,14.13
2022-10-18T21:34:12.649Z,10.32
2022-10-18T21:36:41.133Z,9.52
2022-10-18T21:39:14.268Z,7.75
2022-10-18T21:41:42.643Z,8.13
2022-10-18T21:44:11.063Z,8.23
2022-10-18T21:46:39.784Z,9.48
2022-10-18T21:49:08.513Z,10.25
2022-10-18T21:51:36.021Z,10.05
2022-10-18T21:54:03.671Z,11.98
2022-10-18T21:56:33.871Z,15.60
2022-10-18T21:59:01.909Z,13.32
2022-10-18T22:01:33.684Z,15.75
2022-10-18T22:04:07.406Z,14.15
2022-10-18T22:09:08.334Z,13.40
2022-10-18T22:11:40.569Z,15.18
2022-10-18T22:14:08.198Z,17.50
2022-10-18T22:16:35.509Z,21.80
2022-10-18T22:19:04.602Z,20.48
2022-10-18T22:21:32.056Z,17.38
2022-10-18T22:23:59.731Z,17.98
2022-10-18T22:26:35.363Z,22.08
2022-10-18T22:29:10.422Z,26.40
2022-10-18T22:31:41.473Z,24.65
2022-10-18T22:34:17.292Z,30.02
2022-10-18T22:36:45.436Z,29.88
2022-10-18T22:39:13.956Z,22.77
2022-10-18T22:41:42.078Z,20.20
2022-10-18T22:44:12.148Z,19.13
2022-10-18T22:46:40.692Z,17.63
2022-10-18T22:49:08.081Z,21.95
2022-10-18T22:54:07.730Z,12.80
2022-10-18T22:56:35.342Z,9.95
2022-10-18T22:59:02.764Z,9.05
2022-10-18T23:01:29.946Z,8.57
2022-10-18T23:03:59.541Z,9.25
2022-10-18T23:08:59.161Z,9.38
2022-10-18T23:11:28.185Z,8.82
2022-10-18T23:13:55.544Z,11.30
2022-10-18T23:16:23.198Z,12.23
2022-10-18T23:18:53.617Z,11.93
2022-10-18T23:21:23.561Z,11.93
2022-10-18T23:23:52.276Z,12.43
2022-10-18T23:26:26.331Z,13.03
2022-10-18T23:28:54.050Z,10.07
2022-10-18T23:31:31.042Z,12.85
2022-10-18T23:34:03.160Z,11.65
2022-10-18T23:36:32.374Z,10.00
2022-10-18T23:38:59.660Z,10.93
2022-10-18T23:41:26.970Z,12.35
2022-10-18T23:43:54.227Z,11.68
2022-10-18T23:46:21.844Z,12.98
2022-10-18T23:48:49.416Z,16.42
2022-10-18T23:51:17.243Z,14.43
2022-10-18T23:53:44.422Z,14.30
2022-10-18T23:56:15.118Z,12.70
2022-10-18T23:58:43.794Z,14.40
